Time;durP1;ratioP1;P1;durP2;ratioP2;P2;SDS_P1;SDS_P2;PMS_P1;PMS_P2;Temp;Humidity;BMP_temperature;BMP_pressure;BME280_temperature;BME280_humidity;BME280_pressure;Samples;Min_cycle;Max_cycle;Signal;HPM_P1;HPM_P2
2022/05/19 00:00:14;;;;;;;100.05;68.72;;;15.30;99.90;;;;;;5016953;28;20054;-70
2022/05/19 00:02:40;;;;;;;91.05;63.85;;;15.30;99.90;;;;;;5016490;28;20022;-70
2022/05/19 00:07:33;;;;;;;92.43;59.83;;;15.20;99.90;;;;;;5053584;28;20064;-70
2022/05/19 00:09:59;;;;;;;94.18;66.65;;;15.10;99.90;;;;;;5056708;28;20021;-70
2022/05/19 00:12:24;;;;;;;89.32;62.75;;;15.10;99.90;;;;;;5056408;28;20056;-70
2022/05/19 00:14:50;;;;;;;91.53;63.65;;;15.10;99.90;;;;;;5056356;28;20025;-70
2022/05/19 00:17:16;;;;;;;93.13;61.97;;;15.00;99.90;;;;;;5057348;28;20028;-70
2022/05/19 00:19:42;;;;;;;86.93;58.50;;;15.00;99.90;;;;;;5056628;28;20029;-70
2022/05/19 00:22:08;;;;;;;83.90;59.22;;;15.00;99.90;;;;;;5056376;28;20041;-70
2022/05/19 00:24:33;;;;;;;83.45;57.47;;;14.90;99.90;;;;;;5056070;28;20116;-70
2022/05/19 00:26:59;;;;;;;84.07;60.67;;;14.90;99.90;;;;;;5055950;28;20083;-70
2022/05/19 00:29:26;;;;;;;100.72;66.75;;;14.90;99.90;;;;;;5055302;28;20031;-70
2022/05/19 00:31:51;;;;;;;96.50;69.00;;;14.80;99.90;;;;;;5055889;28;20025;-70
2022/05/19 00:34:17;;;;;;;100.63;68.60;;;14.80;99.90;;;;;;5056117;28;20028;-70
2022/05/19 00:36:43;;;;;;;89.78;67.18;;;14.80;99.90;;;;;;5055799;28;20032;-70
2022/05/19 00:39:10;;;;;;;96.28;66.82;;;14.70;99.90;;;;;;5055849;28;20108;-70
2022/05/19 00:41:44;;;;;;;119.80;81.03;;;14.70;99.90;;;;;;5055905;28;20020;-70
2022/05/19 00:44:10;;;;;;;124.97;82.50;;;14.70;99.90;;;;;;5055901;28;20075;-70
2022/05/19 00:46:46;;;;;;;101.35;67.72;;;14.70;99.90;;;;;;5055804;28;20052;-70
2022/05/19 00:49:17;;;;;;;110.88;74.65;;;14.70;99.90;;;;;;5055725;28;20495;-70
2022/05/19 00:51:58;;;;;;;125.78;82.93;;;14.60;99.90;;;;;;5055742;28;20076;-70
2022/05/19 00:54:29;;;;;;;120.93;83.55;;;14.50;99.90;;;;;;5056283;28;20024;-70
2022/05/19 00:57:02;;;;;;;119.28;81.15;;;14.50;99.90;;;;;;5055558;28;20075;-70
2022/05/19 00:59:36;;;;;;;136.05;86.35;;;14.40;99.90;;;;;;5055606;28;20500;-70
2022/05/19 01:02:04;;;;;;;;;;;14.30;99.90;;;;;;5055999;28;20032;-70
2022/05/19 01:04:38;;;;;;;114.75;78.38;;;14.30;99.90;;;;;;5055472;28;19904;-70
2022/05/19 01:07:10;;;;;;;148.52;94.68;;;14.30;99.90;;;;;;5056483;28;20025;-70
2022/05/19 01:09:38;;;;;;;133.75;91.28;;;14.20;99.90;;;;;;5056005;28;20033;-70
2022/05/19 01:12:06;;;;;;;143.73;88.03;;;14.20;99.90;;;;;;5055629;28;20151;-70
2022/05/19 01:14:32;;;;;;;161.80;100.28;;;14.20;99.90;;;;;;5055375;28;20481;-70
2022/05/19 01:16:59;;;;;;;174.20;104.32;;;14.30;99.90;;;;;;5055327;28;20090;-70
2022/05/19 01:19:59;;;;;;;175.30;104.85;;;14.30;99.90;;;;;;5055262;28;20443;-70
2022/05/19 01:22:37;;;;;;;182.77;108.60;;;14.30;99.90;;;;;;5050992;28;20037;-70
2022/05/19 01:25:19;;;;;;;180.15;108.50;;;14.40;99.90;;;;;;5055540;28;20025;-70
2022/05/19 01:27:45;;;;;;;213.98;122.22;;;14.50;99.90;;;;;;5055064;28;20017;-70
2022/05/19 01:30:11;;;;;;;209.02;122.93;;;14.50;99.90;;;;;;5054917;28;20115;-70
2022/05/19 01:32:37;;;;;;;214.38;127.80;;;14.50;99.90;;;;;;5054842;28;20029;-71
2022/05/19 01:35:03;;;;;;;216.93;130.05;;;14.50;99.90;;;;;;5055031;28;20021;-71
2022/05/19 01:37:29;;;;;;;200.55;121.55;;;14.50;99.90;;;;;;5054724;28;20111;-71
2022/05/19 01:40:08;;;;;;;214.85;122.10;;;14.50;99.90;;;;;;5054251;28;20438;-71
2022/05/19 01:42:58;;;;;;;211.93;121.00;;;14.40;99.90;;;;;;5054904;28;20365;-71
2022/05/19 01:45:55;;;;;;;174.38;102.63;;;14.40;99.90;;;;;;5054829;28;20021;-71
2022/05/19 01:48:42;;;;;;;158.65;98.18;;;14.30;99.90;;;;;;5054689;28;20025;-71
2022/05/19 01:51:28;;;;;;;152.23;90.40;;;14.30;99.90;;;;;;5054898;28;20047;-71
2022/05/19 01:54:25;;;;;;;155.40;91.55;;;14.10;99.90;;;;;;5054842;28;20031;-71
2022/05/19 01:56:54;;;;;;;148.23;88.53;;;14.10;99.90;;;;;;5054811;28;20376;-71
2022/05/19 01:59:38;;;;;;;140.65;87.38;;;14.00;99.90;;;;;;5054330;28;20031;-71
2022/05/19 02:02:22;;;;;;;214.65;111.63;;;14.00;99.90;;;;;;5054661;28;20096;-71
2022/05/19 02:04:48;;;;;;;178.05;102.53;;;14.00;99.90;;;;;;5054346;28;20025;-71
2022/05/19 02:07:17;;;;;;;143.88;88.30;;;14.00;99.90;;;;;;5054045;28;20124;-71
2022/05/19 02:09:53;;;;;;;127.10;78.57;;;14.00;99.90;;;;;;5054265;28;20477;-71
2022/05/19 02:12:19;;;;;;;133.68;80.05;;;13.90;99.90;;;;;;5054301;28;20029;-71
2022/05/19 02:14:50;;;;;;;134.63;81.40;;;13.80;99.90;;;;;;5054031;28;20025;-70
2022/05/19 02:17:20;;;;;;;160.38;89.43;;;13.80;99.90;;;;;;5054400;28;20083;-70
2022/05/19 02:19:49;;;;;;;181.13;108.43;;;13.80;99.90;;;;;;5053981;28;20028;-70
2022/05/19 02:22:21;;;;;;;167.35;100.85;;;13.70;99.90;;;;;;5054188;28;20025;-70
2022/05/19 02:25:10;;;;;;;165.43;100.97;;;13.70;99.90;;;;;;5053989;28;20052;-70
2022/05/19 02:27:51;;;;;;;190.00;106.40;;;13.60;99.90;;;;;;5053919;28;20487;-70
2022/05/19 02:30:24;;;;;;;145.98;87.35;;;13.60;99.90;;;;;;5053875;28;20032;-70
2022/05/19 02:32:50;;;;;;;149.13;92.67;;;13.60;99.90;;;;;;5054255;28;20461;-70
2022/05/19 02:35:16;;;;;;;169.15;97.50;;;13.50;99.90;;;;;;5053677;28;20021;-70
2022/05/19 02:37:42;;;;;;;166.23;93.28;;;13.60;99.90;;;;;;5053726;28;20109;-70
2022/05/19 02:40:08;;;;;;;171.85;96.97;;;13.60;99.90;;;;;;5053899;28;20036;-70
2022/05/19 02:42:34;;;;;;;174.05;100.38;;;13.50;99.90;;;;;;5054424;28;20526;-71
2022/05/19 02:44:59;;;;;;;172.95;100.22;;;13.50;99.90;;;;;;5053665;28;20104;-71
2022/05/19 02:47:25;;;;;;;188.68;103.32;;;13.50;99.90;;;;;;5053647;28;20389;-71
2022/05/19 02:49:51;;;;;;;172.85;101.45;;;13.60;99.90;;;;;;5053679;28;20029;-71
2022/05/19 02:52:16;;;;;;;193.13;110.30;;;13.50;99.90;;;;;;5053513;28;20021;-70
2022/05/19 02:54:42;;;;;;;214.18;119.18;;;13.50;99.90;;;;;;5053604;28;20033;-70
2022/05/19 02:57:08;;;;;;;224.15;123.45;;;13.60;99.90;;;;;;5053606;28;20028;-70
2022/05/19 02:59:33;;;;;;;261.63;131.10;;;13.70;99.90;;;;;;5053469;28;20115;-70
2022/05/19 03:01:59;;;;;;;212.93;117.93;;;13.60;99.90;;;;;;5053617;28;20063;-70
2022/05/19 03:04:24;;;;;;;257.05;133.05;;;13.60;99.90;;;;;;5053441;28;20032;-70
2022/05/19 03:06:50;;;;;;;261.77;134.45;;;13.70;99.90;;;;;;5053243;28;20108;-70
2022/05/19 03:09:16;;;;;;;252.38;127.68;;;13.70;99.90;;;;;;5053558;28;20435;-70
2022/05/19 03:11:41;;;;;;;246.93;125.93;;;13.60;99.90;;;;;;5053373;28;20568;-70
2022/05/19 03:14:07;;;;;;;233.02;121.88;;;13.50;99.90;;;;;;5053525;28;20081;-70
2022/05/19 03:16:32;;;;;;;218.98;113.68;;;13.50;99.90;;;;;;5053448;28;20021;-70
2022/05/19 03:18:58;;;;;;;204.93;109.40;;;13.50;99.90;;;;;;5053352;28;20556;-70
2022/05/19 03:21:23;;;;;;;229.38;119.65;;;13.50;99.90;;;;;;5053333;28;20071;-70
2022/05/19 03:23:49;;;;;;;227.13;119.32;;;13.40;99.90;;;;;;5053527;28;20018;-72
2022/05/19 03:26:15;;;;;;;214.20;111.85;;;13.40;99.90;;;;;;5053372;28;20064;-72
2022/05/19 03:28:40;;;;;;;229.70;116.68;;;13.50;99.90;;;;;;5053984;28;20091;-72
2022/05/19 03:31:08;;;;;;;206.85;108.78;;;13.50;99.90;;;;;;5054421;28;20032;-72
2022/05/19 03:33:34;;;;;;;211.93;109.32;;;13.50;99.90;;;;;;5053301;28;20021;-72
2022/05/19 03:36:01;;;;;;;184.93;98.35;;;13.50;99.90;;;;;;5053086;28;20036;-72
2022/05/19 03:38:28;;;;;;;168.88;89.07;;;13.50;99.90;;;;;;5053246;28;20111;-72
2022/05/19 03:40:53;;;;;;;155.48;85.38;;;13.40;99.90;;;;;;5053111;28;20409;-72
2022/05/19 03:43:19;;;;;;;165.73;89.88;;;13.40;99.90;;;;;;5053219;28;20052;-72
2022/05/19 03:45:45;;;;;;;162.40;86.63;;;13.40;99.90;;;;;;5053054;28;20473;-72
2022/05/19 03:48:10;;;;;;;152.38;85.68;;;13.40;99.90;;;;;;5051942;28;20468;-72
2022/05/19 03:50:36;;;;;;;161.77;86.45;;;13.40;99.90;;;;;;5053089;28;20469;-72
2022/05/19 03:53:02;;;;;;;164.25;86.53;;;13.40;99.90;;;;;;5053514;28;20029;-72
2022/05/19 03:55:27;;;;;;;152.73;85.22;;;13.40;99.90;;;;;;5053148;28;20064;-71
2022/05/19 03:57:54;;;;;;;151.32;83.65;;;13.40;99.90;;;;;;5052991;28;20032;-71
2022/05/19 04:00:21;;;;;;;151.23;82.47;;;13.50;99.90;;;;;;5053186;28;20017;-71
2022/05/19 04:02:46;;;;;;;147.18;82.60;;;13.50;99.90;;;;;;5052953;28;20025;-71
2022/05/19 04:05:13;;;;;;;145.63;82.75;;;13.50;99.90;;;;;;5055508;28;20021;-71
2022/05/19 04:07:40;;;;;;;144.43;83.28;;;13.60;99.90;;;;;;5056845;28;20020;-71
2022/05/19 04:10:08;;;;;;;158.48;86.90;;;13.60;99.90;;;;;;5056476;28;20036;-71
2022/05/19 04:12:34;;;;;;;157.40;90.60;;;13.70;99.90;;;;;;5056464;28;20032;-71
2022/05/19 04:14:59;;;;;;;156.85;86.90;;;13.70;99.90;;;;;;5056508;28;20033;-71
2022/05/19 04:17:25;;;;;;;149.57;84.95;;;13.80;99.90;;;;;;5056646;28;20017;-71
2022/05/19 04:19:51;;;;;;;143.90;81.45;;;13.80;99.90;;;;;;5056376;28;20025;-71
2022/05/19 04:22:17;;;;;;;175.25;100.35;;;13.90;99.90;;;;;;5056215;28;20033;-71
2022/05/19 04:24:43;;;;;;;162.13;91.38;;;14.00;99.90;;;;;;5056821;28;20079;-71
2022/05/19 04:27:11;;;;;;;150.98;83.90;;;14.10;99.90;;;;;;5056387;28;20020;-71
2022/05/19 04:29:37;;;;;;;137.23;80.88;;;14.20;99.90;;;;;;5056403;28;20049;-71
2022/05/19 04:32:02;;;;;;;135.23;81.72;;;14.20;99.90;;;;;;5056184;28;20389;-71
2022/05/19 04:34:28;;;;;;;140.73;85.35;;;14.40;99.90;;;;;;5055986;28;20032;-71
2022/05/19 04:36:53;;;;;;;141.00;88.20;;;14.50;99.90;;;;;;5055814;28;20025;-71
2022/05/19 04:39:19;;;;;;;158.10;95.40;;;14.50;99.90;;;;;;5056118;28;20039;-71
2022/05/19 04:41:44;;;;;;;147.00;89.57;;;14.60;99.90;;;;;;5056393;28;20021;-71
2022/05/19 04:44:10;;;;;;;150.40;95.30;;;14.60;99.90;;;;;;5055852;28;20096;-72
2022/05/19 04:46:36;;;;;;;153.65;93.47;;;14.60;99.90;;;;;;5055820;28;20102;-71
2022/05/19 04:49:01;;;;;;;163.82;97.95;;;14.60;99.90;;;;;;5055833;28;20032;-72
2022/05/19 04:51:27;;;;;;;160.48;103.28;;;14.70;99.90;;;;;;5055706;28;20025;-72
2022/05/19 04:53:52;;;;;;;153.98;94.50;;;14.70;99.90;;;;;;5055968;28;20031;-71
2022/05/19 04:56:18;;;;;;;147.90;88.45;;;14.70;99.90;;;;;;5055447;28;20112;-71
2022/05/19 04:58:43;;;;;;;180.68;102.50;;;14.70;99.90;;;;;;5055980;28;20025;-71
2022/05/19 05:01:09;;;;;;;153.98;92.88;;;14.70;99.90;;;;;;5055560;28;20025;-71
2022/05/19 05:03:35;;;;;;;158.40;92.88;;;14.70;99.90;;;;;;5055514;28;20434;-71
2022/05/19 05:06:00;;;;;;;160.60;91.32;;;14.80;99.90;;;;;;5055653;28;20033;-71
2022/05/19 05:08:26;;;;;;;187.88;108.57;;;14.80;99.90;;;;;;5055643;28;20032;-72
2022/05/19 05:10:51;;;;;;;179.60;103.70;;;14.90;99.90;;;;;;5055464;28;20099;-71
2022/05/19 05:13:18;;;;;;;159.93;93.03;;;15.10;99.90;;;;;;5055647;28;20025;-71
2022/05/19 05:15:43;;;;;;;174.88;102.97;;;15.20;99.90;;;;;;5054799;28;20070;-72
2022/05/19 05:18:10;;;;;;;190.90;117.88;;;15.30;99.90;;;;;;5055588;28;20119;-72
2022/05/19 05:20:38;;;;;;;171.13;100.63;;;15.30;99.90;;;;;;5055483;28;20017;-71
2022/05/19 05:23:04;;;;;;;171.40;102.68;;;15.50;99.90;;;;;;5055258;28;20028;-71
2022/05/19 05:25:29;;;;;;;146.68;94.38;;;15.50;99.90;;;;;;5055432;28;20040;-72
2022/05/19 05:27:58;;;;;;;138.40;83.75;;;15.60;99.90;;;;;;5054968;28;20029;-71
2022/05/19 05:30:25;;;;;;;151.75;86.95;;;15.70;99.90;;;;;;5054659;28;20056;-71
2022/05/19 05:32:51;;;;;;;144.32;88.13;;;15.70;99.90;;;;;;5054867;28;20029;-70
2022/05/19 05:35:16;;;;;;;161.85;97.07;;;15.80;99.90;;;;;;5054940;28;20032;-72
2022/05/19 05:37:42;;;;;;;161.02;103.60;;;15.90;99.90;;;;;;5055257;28;20111;-72
2022/05/19 05:40:10;;;;;;;170.15;107.43;;;15.90;99.90;;;;;;5054946;28;20028;-72
2022/05/19 05:42:37;;;;;;;163.15;104.03;;;15.90;99.90;;;;;;5054675;28;20353;-72
2022/05/19 05:45:04;;;;;;;149.73;98.40;;;16.00;99.90;;;;;;5054467;28;20074;-71
2022/05/19 05:47:30;;;;;;;149.50;93.38;;;16.00;99.90;;;;;;5054650;28;20028;-71
2022/05/19 05:49:56;;;;;;;154.73;92.88;;;16.10;99.90;;;;;;5055122;28;20025;-71
2022/05/19 05:52:22;;;;;;;167.05;102.13;;;16.20;99.90;;;;;;5055220;28;20025;-71
2022/05/19 05:54:48;;;;;;;149.35;94.57;;;16.30;99.90;;;;;;5055315;28;20036;-71
2022/05/19 05:57:14;;;;;;;126.55;80.93;;;16.40;99.90;;;;;;5054145;28;20033;-71
2022/05/19 05:59:41;;;;;;;125.97;77.82;;;16.60;99.90;;;;;;5054137;28;20106;-71
2022/05/19 06:02:07;;;;;;;142.05;91.70;;;16.70;99.90;;;;;;5054140;28;20021;-71
2022/05/19 06:04:33;;;;;;;132.93;88.70;;;16.80;99.90;;;;;;5053947;28;20092;-71
2022/05/19 06:06:59;;;;;;;136.70;91.47;;;17.00;99.90;;;;;;5077986;22;20047;-67
2022/05/19 06:09:24;;;;;;;139.25;91.18;;;17.10;99.90;;;;;;5054172;28;20025;-68
2022/05/19 06:11:51;;;;;;;131.05;82.60;;;17.30;99.90;;;;;;5054248;28;20029;-67
2022/05/19 06:14:17;;;;;;;123.05;83.18;;;17.50;99.90;;;;;;5054057;28;20021;-66
2022/05/19 06:16:42;;;;;;;126.15;83.18;;;17.50;99.90;;;;;;5053705;28;20469;-66
2022/05/19 06:19:08;;;;;;;125.90;91.00;;;17.80;99.90;;;;;;5053579;28;20041;-66
2022/05/19 06:21:36;;;;;;;124.00;85.03;;;18.00;99.90;;;;;;5053768;28;20071;-66
2022/05/19 06:24:04;;;;;;;108.07;74.55;;;18.20;99.90;;;;;;5053908;28;20055;-66
2022/05/19 06:26:32;;;;;;;98.00;68.57;;;18.60;99.90;;;;;;5053140;28;20017;-67
2022/05/19 06:28:58;;;;;;;97.50;65.28;;;18.50;99.90;;;;;;5053561;28;20496;-67
2022/05/19 06:31:24;;;;;;;84.10;55.90;;;18.40;99.90;;;;;;5053835;28;20029;-68
2022/05/19 06:33:50;;;;;;;95.53;62.03;;;18.50;99.90;;;;;;5053767;28;20028;-66
2022/05/19 06:36:15;;;;;;;78.68;52.83;;;18.50;99.90;;;;;;5053448;28;20029;-66
2022/05/19 06:38:41;;;;;;;85.60;58.20;;;18.70;99.90;;;;;;5053376;28;20025;-68
2022/05/19 06:43:51;;;;;;;77.07;53.60;;;19.40;99.90;;;;;;5053440;28;20032;-66
2022/05/19 06:46:16;;;;;;;73.47;49.25;;;19.60;99.90;;;;;;5053443;28;20017;-66
2022/05/19 06:48:43;;;;;;;64.10;44.92;;;19.80;99.90;;;;;;5053858;28;20158;-67
2022/05/19 06:51:08;;;;;;;55.30;36.90;;;19.70;99.90;;;;;;5053644;28;20159;-67
2022/05/19 06:53:34;;;;;;;64.28;44.35;;;19.80;99.90;;;;;;5053802;28;20061;-67
2022/05/19 06:55:59;;;;;;;67.88;42.40;;;19.90;99.90;;;;;;5053164;28;20107;-67
2022/05/19 06:58:25;;;;;;;54.65;38.63;;;19.70;99.90;;;;;;5053425;28;20134;-67
2022/05/19 07:00:50;;;;;;;59.50;41.50;;;19.50;99.90;;;;;;5053227;28;20021;-67
2022/05/19 07:03:16;;;;;;;68.43;42.30;;;19.40;99.90;;;;;;5053250;28;20096;-68
2022/05/19 07:05:42;;;;;;;68.68;41.63;;;19.40;99.90;;;;;;5052951;28;20057;-68
2022/05/19 07:08:08;;;;;;;68.05;44.22;;;19.40;99.90;;;;;;5053918;28;20090;-70
2022/05/19 07:10:34;;;;;;;61.80;43.30;;;19.60;99.90;;;;;;5053373;28;20044;-68
2022/05/19 07:13:00;;;;;;;70.97;45.95;;;19.70;99.90;;;;;;5053120;28;20520;-67
2022/05/19 07:15:27;;;;;;;58.90;41.63;;;19.70;99.90;;;;;;5053017;28;20053;-68
2022/05/19 07:17:53;;;;;;;61.38;41.25;;;19.90;99.90;;;;;;5052849;28;20399;-67
2022/05/19 07:23:06;;;;;;;55.70;37.72;;;20.40;99.90;;;;;;5053345;28;20091;-68
2022/05/19 07:25:32;;;;;;;55.58;41.25;;;20.60;99.90;;;;;;5053062;28;20027;-67
2022/05/19 07:27:58;;;;;;;65.47;40.35;;;20.70;99.90;;;;;;5053005;28;20036;-67
2022/05/19 07:30:23;;;;;;;47.88;35.75;;;20.70;99.90;;;;;;5052890;28;20025;-67
2022/05/19 07:32:49;;;;;;;52.00;35.88;;;21.00;99.90;;;;;;5053131;28;20496;-67
2022/05/19 07:35:17;;;;;;;49.03;33.60;;;21.20;99.90;;;;;;5052830;28;20021;-68
2022/05/19 07:37:43;;;;;;;39.17;27.08;;;21.40;99.90;;;;;;5053626;28;20082;-68
2022/05/19 07:40:09;;;;;;;39.38;29.48;;;21.60;99.90;;;;;;5056817;28;20108;-67
2022/05/19 07:42:35;;;;;;;38.65;27.30;;;21.80;99.90;;;;;;5056428;28;20029;-67
2022/05/19 07:45:01;;;;;;;35.30;26.33;;;21.80;99.90;;;;;;5057079;28;20028;-67
2022/05/19 07:47:29;;;;;;;31.25;22.02;;;21.70;99.90;;;;;;5056413;28;20044;-67
2022/05/19 07:49:56;;;;;;;33.55;24.38;;;21.70;99.90;;;;;;5056491;28;20498;-67
2022/05/19 07:52:22;;;;;;;33.80;21.35;;;21.90;99.90;;;;;;5056653;28;20025;-67
2022/05/19 07:54:48;;;;;;;36.10;20.35;;;22.10;99.90;;;;;;5056621;28;20425;-67
2022/05/19 07:57:13;;;;;;;27.27;20.30;;;22.40;99.90;;;;;;5056327;28;20029;-67
2022/05/19 07:59:39;;;;;;;33.35;20.58;;;22.50;99.90;;;;;;5056532;28;20033;-67
2022/05/19 08:02:05;;;;;;;28.90;19.25;;;22.40;99.90;;;;;;5056273;28;20029;-67
2022/05/19 08:04:31;;;;;;;25.95;18.45;;;22.20;99.90;;;;;;5056146;28;20035;-67
2022/05/19 08:06:56;;;;;;;29.13;18.00;;;22.10;99.90;;;;;;5056055;28;20094;-67
2022/05/19 08:10:20;;;;;;;23.92;16.63;;;22.00;99.90;;;;;;5056287;28;20108;-67
2022/05/19 08:15:34;;;;;;;25.73;17.67;;;22.00;99.90;;;;;;5055919;28;20048;-67
2022/05/19 08:17:49;;;;;;;22.77;17.52;;;21.60;99.90;;;;;;5056316;28;20055;-68
2022/05/19 08:20:15;;;;;;;21.73;14.48;;;21.20;99.90;;;;;;5055990;28;20476;-68
2022/05/19 08:22:41;;;;;;;28.42;20.55;;;21.20;99.90;;;;;;5056223;28;20158;-68
2022/05/19 08:25:07;;;;;;;24.42;16.70;;;21.20;99.90;;;;;;5055816;28;20087;-68
2022/05/19 08:27:32;;;;;;;25.75;19.95;;;21.30;99.90;;;;;;5055719;28;20021;-67
2022/05/19 08:29:58;;;;;;;23.48;15.95;;;21.30;99.90;;;;;;5055708;28;20025;-68
2022/05/19 08:32:24;;;;;;;27.40;15.95;;;21.40;99.90;;;;;;5055926;28;20037;-67
2022/05/19 08:34:50;;;;;;;17.67;12.75;;;21.50;99.90;;;;;;5055893;28;20033;-67
2022/05/19 08:37:15;;;;;;;25.10;15.35;;;21.60;99.90;;;;;;5055757;28;20083;-67
2022/05/19 08:39:41;;;;;;;22.88;16.63;;;21.70;99.90;;;;;;5055865;28;20036;-68
2022/05/19 08:42:07;;;;;;;26.20;17.83;;;21.70;99.90;;;;;;5055505;28;20028;-67
2022/05/19 08:44:48;;;;;;;28.45;19.48;;;21.60;99.90;;;;;;5055411;28;20025;-67
2022/05/19 08:47:20;;;;;;;51.83;31.40;;;21.50;99.90;;;;;;5055350;28;20036;-67
2022/05/19 08:50:06;;;;;;;55.35;36.40;;;21.40;99.90;;;;;;5054715;28;20032;-67
2022/05/19 08:52:45;;;;;;;51.67;38.28;;;21.40;99.90;;;;;;5055566;28;20060;-67
2022/05/19 08:55:14;;;;;;;56.92;40.83;;;21.70;99.90;;;;;;5055575;28;20036;-67
2022/05/19 08:57:55;;;;;;;53.60;39.53;;;21.60;99.90;;;;;;5055635;28;20079;-67
2022/05/19 09:00:30;;;;;;;59.53;44.03;;;21.60;99.90;;;;;;5055481;28;20033;-67
2022/05/19 09:03:17;;;;;;;60.75;43.05;;;21.50;99.90;;;;;;5055136;28;20017;-66
2022/05/19 09:06:04;;;;;;;62.97;42.22;;;21.50;99.90;;;;;;5055053;28;20033;-66
2022/05/19 09:08:41;;;;;;;68.53;44.90;;;21.60;99.90;;;;;;5055249;28;20032;-66
2022/05/19 09:11:20;;;;;;;54.40;39.30;;;21.80;99.90;;;;;;5055319;28;20032;-66
2022/05/19 09:13:53;;;;;;;58.53;40.13;;;21.90;99.90;;;;;;5055159;28;20024;-66
2022/05/19 09:16:20;;;;;;;54.35;40.13;;;21.80;99.90;;;;;;5055118;28;20114;-66
2022/05/19 09:19:08;;;;;;;56.03;38.15;;;21.90;99.90;;;;;;5055643;28;20457;-67
2022/05/19 09:21:36;;;;;;;59.50;36.38;;;21.80;99.90;;;;;;5040975;28;20477;-66
2022/05/19 09:24:02;;;;;;;50.45;33.75;;;21.80;99.90;;;;;;5055056;28;20013;-66
2022/05/19 09:26:42;;;;;;;51.30;35.53;;;22.30;99.90;;;;;;5054470;28;20036;-66
2022/05/19 09:29:12;;;;;;;46.55;33.30;;;22.70;99.90;;;;;;5054530;28;20079;-67
2022/05/19 09:32:03;;;;;;;49.05;34.13;;;23.00;99.90;;;;;;5054466;28;20500;-66
2022/05/19 09:34:30;;;;;;;49.97;34.40;;;23.00;99.90;;;;;;5043694;28;20055;-66
2022/05/19 09:37:12;;;;;;;48.80;31.25;;;22.90;99.90;;;;;;5054609;28;20033;-66
2022/05/19 09:39:45;;;;;;;37.85;24.77;;;22.30;99.90;;;;;;5054661;28;20029;-66
2022/05/19 09:42:15;;;;;;;38.17;25.02;;;22.00;99.90;;;;;;5054352;28;20425;-67
2022/05/19 09:44:50;;;;;;;44.15;22.27;;;21.60;99.90;;;;;;5054369;28;20548;-66
2022/05/19 09:47:26;;;;;;;34.30;19.95;;;21.30;99.90;;;;;;5054523;28;20032;-67
2022/05/19 09:49:55;;;;;;;34.53;21.58;;;21.10;99.90;;;;;;5054651;28;20534;-65
2022/05/19 09:52:26;;;;;;;43.70;22.70;;;21.30;99.90;;;;;;5054486;28;20039;-65
2022/05/19 09:54:56;;;;;;;41.00;21.33;;;21.20;99.90;;;;;;5054502;28;20025;-65
2022/05/19 09:57:33;;;;;;;32.55;18.15;;;21.40;99.90;;;;;;5054326;28;20048;-65
2022/05/19 10:00:04;;;;;;;33.25;18.40;;;21.60;99.90;;;;;;5054363;28;20022;-65
2022/05/19 10:02:44;;;;;;;32.10;13.43;;;21.50;99.90;;;;;;5053723;28;20048;-65
2022/05/19 10:05:31;;;;;;;31.33;15.05;;;21.30;99.90;;;;;;5054316;28;20060;-65
2022/05/19 10:08:04;;;;;;;37.67;16.48;;;21.10;99.90;;;;;;5054225;28;20124;-66
2022/05/19 10:10:31;;;;;;;;;;;20.70;99.90;;;;;;5054268;28;20548;-65
2022/05/19 10:13:02;;;;;;;31.13;14.65;;;20.60;99.90;;;;;;5054167;28;19951;-67
2022/05/19 10:15:41;;;;;;;35.28;15.95;;;20.60;99.90;;;;;;5053931;28;20021;-67
2022/05/19 10:18:38;;;;;;;29.75;16.52;;;20.80;99.90;;;;;;5053913;28;20032;-67
2022/05/19 10:21:27;;;;;;;32.33;16.85;;;20.80;99.90;;;;;;5053667;28;20031;-67
2022/05/19 10:24:17;;;;;;;35.53;19.33;;;21.00;99.90;;;;;;5014720;28;20044;-67
2022/05/19 10:26:52;;;;;;;29.80;19.35;;;21.20;99.90;;;;;;5053809;28;20061;-67
2022/05/19 10:32:48;;;;;;;28.55;16.90;;;21.70;99.90;;;;;;5053548;28;20040;-67
2022/05/19 10:35:27;;;;;;;31.15;16.83;;;21.90;99.90;;;;;;5053595;28;20166;-67
2022/05/19 10:38:29;;;;;;;31.25;15.95;;;22.00;99.90;;;;;;5053693;28;20053;-67
2022/05/19 10:41:12;;;;;;;27.45;18.10;;;22.00;99.90;;;;;;5023348;28;20119;-67
2022/05/19 10:44:09;;;;;;;28.77;18.17;;;22.10;99.90;;;;;;5053672;28;20049;-67
2022/05/19 10:46:50;;;;;;;31.20;19.27;;;22.40;99.90;;;;;;4981995;28;20035;-67
2022/05/19 10:49:32;;;;;;;28.35;17.88;;;22.40;99.90;;;;;;5053239;28;20025;-67
2022/05/19 10:52:23;;;;;;;25.17;17.05;;;22.10;99.90;;;;;;5053627;28;20115;-68
2022/05/19 10:55:15;;;;;;;33.47;17.83;;;22.00;99.90;;;;;;5053296;28;20060;-68
2022/05/19 10:57:46;;;;;;;28.92;19.17;;;22.00;99.90;;;;;;5053572;28;20079;-68
2022/05/19 11:00:21;;;;;;;23.38;15.65;;;21.70;99.90;;;;;;5053194;28;20024;-68
2022/05/19 11:02:54;;;;;;;26.65;15.98;;;21.70;99.90;;;;;;5053361;28;20063;-70
2022/05/19 11:05:42;;;;;;;22.63;14.77;;;21.60;99.90;;;;;;5053106;28;20043;-70
2022/05/19 11:08:37;;;;;;;22.00;12.18;;;21.60;99.90;;;;;;5053419;28;20111;-71
2022/05/19 11:11:41;;;;;;;21.33;12.85;;;21.70;99.90;;;;;;5053478;28;20131;-71
2022/05/19 11:14:20;;;;;;;18.08;11.23;;;21.50;99.90;;;;;;5056231;28;20017;-71
2022/05/19 11:17:02;;;;;;;18.20;10.07;;;21.50;99.90;;;;;;5057253;28;20032;-71
2022/05/19 11:19:34;;;;;;;17.08;11.38;;;21.70;99.90;;;;;;5057330;28;20380;-71
2022/05/19 11:22:12;;;;;;;14.73;10.98;;;22.10;99.90;;;;;;5057230;28;20086;-71
2022/05/19 11:27:42;;;;;;;16.85;11.85;;;22.70;99.90;;;;;;5057211;28;20071;-70
2022/05/19 11:30:14;;;;;;;17.38;12.75;;;22.50;99.90;;;;;;5057222;28;20098;-70
2022/05/19 11:32:42;;;;;;;26.30;11.68;;;22.80;99.90;;;;;;5057219;28;20021;-70
2022/05/19 11:35:16;;;;;;;25.17;11.98;;;22.80;99.90;;;;;;5056842;28;20021;-70
2022/05/19 11:37:50;;;;;;;18.92;11.38;;;22.90;99.90;;;;;;5057297;28;20029;-71
2022/05/19 11:40:37;;;;;;;16.05;11.32;;;23.30;99.90;;;;;;5057358;28;20025;-71
2022/05/19 11:43:13;;;;;;;15.63;11.18;;;23.20;99.90;;;;;;5057084;28;20017;-71
2022/05/19 11:45:43;;;;;;;15.27;10.80;;;23.10;99.90;;;;;;5038787;28;20085;-70
2022/05/19 11:57:37;;;;;;;15.88;9.50;;;22.80;99.90;;;;;;5056726;28;20036;-70
2022/05/19 12:00:05;;;;;;;13.85;9.07;;;22.60;99.90;;;;;;5056596;28;20029;-69
2022/05/19 12:02:48;;;;;;;12.65;9.00;;;22.60;99.90;;;;;;5057140;28;20100;-70
2022/05/19 12:05:43;;;;;;;16.38;8.65;;;22.70;99.90;;;;;;5056490;28;20472;-69
2022/05/19 12:08:25;;;;;;;10.68;8.25;;;22.70;99.90;;;;;;5008730;28;20071;-69
2022/05/19 12:11:08;;;;;;;16.20;9.50;;;22.80;99.90;;;;;;5056503;28;20500;-69
2022/05/19 12:13:36;;;;;;;14.63;7.73;;;22.60;99.90;;;;;;5056441;28;20037;-69
2022/05/19 12:16:10;;;;;;;11.57;8.85;;;22.70;99.90;;;;;;5056497;28;20029;-65
2022/05/19 12:18:42;;;;;;;12.32;7.95;;;22.90;99.90;;;;;;5056213;28;20036;-65
2022/05/19 12:21:09;;;;;;;13.45;9.18;;;23.00;99.90;;;;;;5055989;28;20504;-66
2022/05/19 12:23:40;;;;;;;12.95;8.45;;;22.90;99.90;;;;;;5056308;28;20021;-65
2022/05/19 12:26:17;;;;;;;17.45;9.50;;;22.90;99.90;;;;;;5054945;28;20021;-65
2022/05/19 12:29:07;;;;;;;18.40;9.90;;;22.80;99.90;;;;;;5055972;28;20516;-67
2022/05/19 12:34:44;;;;;;;14.48;8.77;;;22.50;99.90;;;;;;5041203;28;20500;-67
2022/05/19 12:37:15;;;;;;;14.30;8.73;;;22.50;99.90;;;;;;5034731;28;20409;-67
2022/05/19 12:39:49;;;;;;;14.43;9.43;;;22.80;99.90;;;;;;5035311;28;20512;-67
2022/05/19 12:42:25;;;;;;;11.48;7.97;;;22.80;99.90;;;;;;5035092;28;20492;-67
2022/05/19 12:44:53;;;;;;;9.75;7.82;;;23.10;99.90;;;;;;5035276;28;20470;-67
2022/05/19 12:47:32;;;;;;;11.45;8.10;;;23.40;99.90;;;;;;5035275;28;20040;-67
2022/05/19 12:50:01;;;;;;;14.02;9.20;;;23.60;99.90;;;;;;5035478;28;20489;-67
2022/05/19 12:52:58;;;;;;;13.80;7.75;;;24.10;99.90;;;;;;5035154;28;20520;-67
2022/05/19 12:55:26;;;;;;;17.17;7.30;;;25.00;99.90;;;;;;5034911;28;20501;-67
2022/05/19 12:57:57;;;;;;;16.65;8.52;;;26.30;99.90;;;;;;5035220;28;20034;-67
2022/05/19 13:00:24;;;;;;;12.73;7.43;;;27.60;99.90;;;;;;5034998;28;20068;-67
2022/05/19 13:03:01;;;;;;;15.00;6.93;;;29.00;99.90;;;;;;5035263;28;20033;-67
2022/05/19 13:05:42;;;;;;;13.10;6.97;;;29.80;99.90;;;;;;5035008;28;20029;-67
2022/05/19 13:08:15;;;;;;;11.30;6.50;;;30.30;99.90;;;;;;5034733;28;20536;-68
2022/05/19 13:10:48;;;;;;;16.42;6.78;;;30.60;99.90;;;;;;5034670;28;20021;-68